Time;durP1;ratioP1;P1;durP2;ratioP2;P2;SDS_P1;SDS_P2;PMS_P1;PMS_P2;Temp;Humidity;BMP_temperature;BMP_pressure;BME280_temperature;BME280_humidity;BME280_pressure;Samples;Min_cycle;Max_cycle;Signal;HPM_P1;HPM_P2
2022/03/27 00:02:14;;;;;;;5.97;4.90;;;10.90;99.90;;;;;;4978351;28;20301;-52
2022/03/27 00:04:41;;;;;;;7.47;4.80;;;10.70;99.90;;;;;;4977928;28;20210;-51
2022/03/27 00:07:08;;;;;;;8.10;4.83;;;10.70;99.90;;;;;;4976181;28;20420;-51
2022/03/27 00:09:35;;;;;;;6.40;5.00;;;10.60;99.90;;;;;;4977018;28;20616;-54
2022/03/27 00:12:03;;;;;;;8.00;4.40;;;10.60;99.90;;;;;;4976148;28;20692;-52
2022/03/27 00:14:30;;;;;;;6.23;4.60;;;10.70;99.90;;;;;;4978358;28;20304;-53
2022/03/27 00:16:57;;;;;;;5.80;5.03;;;10.60;99.90;;;;;;4975117;28;21460;-54
2022/03/27 00:19:24;;;;;;;7.20;4.80;;;10.60;99.90;;;;;;4977593;28;20675;-52
2022/03/27 00:21:51;;;;;;;7.73;5.03;;;10.60;99.90;;;;;;4978635;28;20255;-53
2022/03/27 00:24:18;;;;;;;8.43;5.37;;;10.50;99.90;;;;;;4977568;28;20718;-54
2022/03/27 00:26:45;;;;;;;7.97;5.07;;;10.50;99.90;;;;;;4971610;28;20344;-54
2022/03/27 00:29:15;;;;;;;9.13;5.43;;;10.50;99.90;;;;;;4973856;28;20618;-51
2022/03/27 00:31:42;;;;;;;7.53;5.07;;;10.50;99.90;;;;;;4976280;28;20221;-52
2022/03/27 00:34:09;;;;;;;6.53;4.60;;;10.50;99.90;;;;;;4978820;28;20202;-52
2022/03/27 00:36:36;;;;;;;6.13;4.67;;;10.30;99.90;;;;;;4979400;28;20209;-52
2022/03/27 00:39:03;;;;;;;7.43;5.33;;;10.30;99.90;;;;;;4977287;28;20566;-52
2022/03/27 00:41:30;;;;;;;8.00;5.00;;;10.20;99.90;;;;;;4976976;28;20202;-51
2022/03/27 00:43:57;;;;;;;9.43;7.00;;;10.20;99.90;;;;;;4976246;28;20209;-52
2022/03/27 00:46:24;;;;;;;6.73;5.47;;;10.20;99.90;;;;;;4970081;28;20213;-51
2022/03/27 00:48:51;;;;;;;5.43;4.83;;;10.30;99.90;;;;;;4974057;28;20319;-53
2022/03/27 00:51:18;;;;;;;8.63;5.10;;;10.30;99.90;;;;;;4978104;28;20230;-51
2022/03/27 00:53:45;;;;;;;5.40;4.37;;;10.30;99.90;;;;;;4976466;28;20297;-52
2022/03/27 00:56:12;;;;;;;7.60;5.07;;;10.30;99.90;;;;;;4976951;28;20290;-51
2022/03/27 00:58:38;;;;;;;6.97;5.27;;;10.40;99.90;;;;;;4976075;28;20254;-52
2022/03/27 01:01:16;;;;;;;4.93;4.43;;;10.30;99.90;;;;;;4976173;28;20206;-52
2022/03/27 01:03:47;;;;;;;7.73;5.47;;;10.20;99.90;;;;;;4973201;28;20208;-51
2022/03/27 01:06:25;;;;;;;7.73;4.53;;;10.10;99.90;;;;;;4979501;28;20298;-50
2022/03/27 01:11:40;;;;;;;7.13;5.37;;;10.30;99.90;;;;;;4977381;28;20209;-52
2022/03/27 01:14:08;;;;;;;4.90;4.40;;;10.20;99.90;;;;;;4978042;28;20193;-52
2022/03/27 01:16:55;;;;;;;5.30;4.20;;;10.30;99.90;;;;;;4976112;28;20682;-51
2022/03/27 01:19:23;;;;;;;6.40;4.83;;;10.30;99.90;;;;;;4976138;28;20202;-54
2022/03/27 01:21:50;;;;;;;5.70;4.73;;;10.30;99.90;;;;;;4979472;28;20212;-52
2022/03/27 01:24:17;;;;;;;6.27;4.73;;;10.20;99.90;;;;;;4974194;28;20201;-51
2022/03/27 01:26:45;;;;;;;5.70;4.43;;;10.20;99.90;;;;;;4977755;28;20710;-54
2022/03/27 01:29:12;;;;;;;5.70;4.93;;;10.20;99.90;;;;;;4977452;28;20222;-53
2022/03/27 01:31:39;;;;;;;5.00;4.50;;;10.20;99.90;;;;;;4976579;28;20201;-53
2022/03/27 01:34:06;;;;;;;6.87;4.97;;;10.10;99.90;;;;;;4975856;28;20198;-53
2022/03/27 01:36:35;;;;;;;5.87;5.20;;;10.20;99.90;;;;;;4978471;28;20257;-52
2022/03/27 01:39:07;;;;;;;5.70;5.10;;;10.00;99.90;;;;;;4973533;28;20259;-54
2022/03/27 01:41:35;;;;;;;6.00;5.10;;;9.90;99.90;;;;;;4976429;28;20217;-51
2022/03/27 01:44:04;;;;;;;9.17;5.13;;;9.90;99.90;;;;;;4978463;28;20209;-52
2022/03/27 01:46:35;;;;;;;5.70;5.00;;;9.90;99.90;;;;;;4978083;28;20295;-53
2022/03/27 01:49:04;;;;;;;7.80;5.53;;;9.90;99.90;;;;;;4980749;28;20283;-53
2022/03/27 01:51:31;;;;;;;6.77;5.80;;;9.70;99.90;;;;;;4978522;28;20229;-50
2022/03/27 01:53:59;;;;;;;7.40;5.37;;;10.00;99.90;;;;;;4978276;28;20219;-52
2022/03/27 01:56:26;;;;;;;8.07;5.73;;;10.00;99.90;;;;;;4979071;28;20246;-50
2022/03/27 01:58:53;;;;;;;6.27;5.67;;;10.10;99.90;;;;;;4976320;28;20219;-53
2022/03/27 02:01:20;;;;;;;6.70;5.50;;;9.90;99.90;;;;;;4976272;28;20217;-53
2022/03/27 02:03:49;;;;;;;6.77;5.10;;;9.80;99.90;;;;;;4974861;28;20302;-51
2022/03/27 02:06:16;;;;;;;6.33;5.63;;;9.90;99.90;;;;;;4973698;28;20226;-51
2022/03/27 02:08:44;;;;;;;5.87;5.27;;;10.00;99.90;;;;;;4975051;28;20238;-52
2022/03/27 02:11:14;;;;;;;8.30;6.40;;;9.80;99.90;;;;;;4975928;28;20209;-52
2022/03/27 02:13:41;;;;;;;9.43;6.33;;;9.90;99.90;;;;;;4974603;28;20604;-53
2022/03/27 02:16:08;;;;;;;7.40;5.33;;;9.70;99.90;;;;;;4974831;28;20708;-51
2022/03/27 02:18:36;;;;;;;7.77;5.50;;;9.60;99.90;;;;;;4974414;28;20209;-52
2022/03/27 02:21:03;;;;;;;6.27;5.50;;;9.60;99.90;;;;;;4974869;28;20209;-52
2022/03/27 02:23:31;;;;;;;6.80;6.10;;;9.80;99.90;;;;;;4973651;28;20638;-51
2022/03/27 02:25:58;;;;;;;6.13;4.87;;;9.80;99.90;;;;;;4973458;28;20213;-51
2022/03/27 02:28:25;;;;;;;6.20;5.23;;;9.80;99.90;;;;;;4973885;28;20646;-51
2022/03/27 02:30:52;;;;;;;5.93;5.23;;;9.80;99.90;;;;;;4972762;28;20210;-50
2022/03/27 02:33:19;;;;;;;8.03;5.70;;;9.70;99.90;;;;;;4973293;28;20215;-49
2022/03/27 02:35:46;;;;;;;6.10;5.43;;;9.70;99.90;;;;;;4973205;28;20763;-53
2022/03/27 02:38:13;;;;;;;6.27;5.43;;;9.80;99.90;;;;;;4973783;28;20205;-53
2022/03/27 02:40:42;;;;;;;6.40;5.43;;;9.90;99.90;;;;;;4972459;28;20207;-53
2022/03/27 02:43:09;;;;;;;8.07;5.40;;;9.90;99.90;;;;;;4972779;28;20207;-53
2022/03/27 02:45:37;;;;;;;8.93;5.83;;;9.80;99.90;;;;;;4974733;28;20625;-52
2022/03/27 02:48:05;;;;;;;7.10;5.70;;;9.80;99.90;;;;;;4975194;28;20705;-52
2022/03/27 02:50:32;;;;;;;6.57;5.70;;;9.60;99.90;;;;;;4975709;28;20675;-52
2022/03/27 02:52:59;;;;;;;7.73;5.60;;;9.60;99.90;;;;;;4975952;28;20329;-53
2022/03/27 02:55:26;;;;;;;6.27;5.47;;;9.60;99.90;;;;;;4977244;28;20210;-51
2022/03/27 02:57:54;;;;;;;7.53;6.63;;;9.60;99.90;;;;;;4974972;28;20758;-53
2022/03/27 03:00:21;;;;;;;6.87;5.57;;;9.60;99.90;;;;;;4972595;28;20732;-52
2022/03/27 03:02:48;;;;;;;7.00;6.00;;;9.70;99.90;;;;;;4974420;28;20199;-50
2022/03/27 03:05:17;;;;;;;7.43;5.80;;;9.70;99.90;;;;;;4974309;28;20557;-51
2022/03/27 03:07:44;;;;;;;8.47;6.40;;;9.60;99.90;;;;;;4975195;28;20741;-51
2022/03/27 03:10:11;;;;;;;8.80;6.67;;;9.70;99.90;;;;;;4972859;28;20367;-52
2022/03/27 03:12:39;;;;;;;7.63;6.83;;;9.60;99.90;;;;;;4978341;28;20199;-51
2022/03/27 03:15:07;;;;;;;9.70;7.30;;;9.60;99.90;;;;;;4973788;28;20236;-53
2022/03/27 03:17:34;;;;;;;8.30;7.37;;;9.70;99.90;;;;;;4974985;28;20508;-52
2022/03/27 03:20:02;;;;;;;8.27;7.13;;;9.50;99.90;;;;;;4971330;28;20205;-52
2022/03/27 03:22:30;;;;;;;8.77;7.33;;;9.50;99.90;;;;;;4976304;28;20211;-52
2022/03/27 03:24:58;;;;;;;11.23;7.20;;;9.50;99.90;;;;;;4979761;28;20206;-53
2022/03/27 03:27:25;;;;;;;10.43;7.60;;;9.50;99.90;;;;;;4979888;28;20230;-51
2022/03/27 03:29:51;;;;;;;8.17;7.30;;;9.50;99.90;;;;;;4978558;28;20371;-52
2022/03/27 03:32:18;;;;;;;9.30;7.80;;;9.60;99.90;;;;;;4980619;28;20224;-50
2022/03/27 03:34:45;;;;;;;9.33;7.90;;;9.70;99.90;;;;;;4978590;28;20315;-51
2022/03/27 03:37:12;;;;;;;11.50;7.30;;;9.60;99.90;;;;;;4978844;28;20235;-52
2022/03/27 03:39:38;;;;;;;8.33;7.00;;;9.70;99.90;;;;;;4976196;28;20249;-52
2022/03/27 03:42:06;;;;;;;9.17;7.47;;;9.70;99.90;;;;;;4979829;28;20595;-50
2022/03/27 03:44:32;;;;;;;8.77;7.13;;;9.70;99.90;;;;;;4978034;28;20299;-53
2022/03/27 03:46:59;;;;;;;8.67;7.20;;;9.60;99.90;;;;;;4977695;28;20324;-52
2022/03/27 03:49:26;;;;;;;11.10;7.93;;;9.60;99.90;;;;;;4980137;28;20252;-52
2022/03/27 03:51:53;;;;;;;11.07;7.63;;;9.60;99.90;;;;;;4979217;28;20236;-52
2022/03/27 03:54:20;;;;;;;10.70;7.70;;;9.50;99.90;;;;;;4976783;28;20237;-52
2022/03/27 03:56:47;;;;;;;12.57;8.03;;;9.60;99.90;;;;;;4982519;28;20206;-52
2022/03/27 03:59:14;;;;;;;9.47;8.07;;;9.50;99.90;;;;;;4980217;28;20204;-51
2022/03/27 04:01:57;;;;;;;9.17;7.60;;;9.60;99.90;;;;;;4980290;28;20364;-52
2022/03/27 04:04:24;;;;;;;10.87;8.07;;;9.50;99.90;;;;;;4979212;28;20558;-51
2022/03/27 04:06:51;;;;;;;8.73;7.67;;;9.50;99.90;;;;;;4977982;28;20260;-53
2022/03/27 04:09:20;;;;;;;10.40;8.23;;;9.40;99.90;;;;;;4979579;28;20241;-53
2022/03/27 04:11:47;;;;;;;10.47;7.77;;;9.40;99.90;;;;;;4978415;28;20247;-52
2022/03/27 04:14:14;;;;;;;11.07;7.30;;;9.40;99.90;;;;;;4980566;28;20304;-53
2022/03/27 04:16:41;;;;;;;9.33;7.40;;;9.30;99.90;;;;;;4977644;28;20267;-52
2022/03/27 04:19:08;;;;;;;8.17;7.30;;;9.30;99.90;;;;;;4977565;28;20212;-52
2022/03/27 04:21:35;;;;;;;9.67;7.87;;;9.30;99.90;;;;;;4976510;28;20217;-52
2022/03/27 04:24:02;;;;;;;12.17;8.90;;;9.30;99.90;;;;;;4977979;28;20213;-53
2022/03/27 04:26:32;;;;;;;9.33;7.60;;;9.40;99.90;;;;;;4978068;28;20217;-50
2022/03/27 04:28:59;;;;;;;10.50;8.23;;;9.50;99.90;;;;;;4981680;28;20330;-51
2022/03/27 04:31:28;;;;;;;10.70;8.17;;;9.40;99.90;;;;;;4977345;28;20308;-52
2022/03/27 04:33:55;;;;;;;11.87;8.50;;;9.40;99.90;;;;;;4979123;28;20194;-53
2022/03/27 04:36:22;;;;;;;9.60;7.97;;;9.30;99.90;;;;;;4977228;28;20698;-52
2022/03/27 04:38:49;;;;;;;12.60;8.80;;;9.40;99.90;;;;;;4974797;28;20568;-51
2022/03/27 04:41:16;;;;;;;12.50;9.60;;;9.40;99.90;;;;;;4980567;28;20360;-52
2022/03/27 04:43:48;;;;;;;11.30;8.93;;;9.40;99.90;;;;;;4978374;28;20258;-52
2022/03/27 04:46:15;;;;;;;10.33;8.70;;;9.40;99.90;;;;;;4981479;28;20346;-52
2022/03/27 04:48:43;;;;;;;11.23;8.77;;;9.50;99.90;;;;;;4976944;28;20212;-52
2022/03/27 04:51:10;;;;;;;12.27;9.47;;;9.40;99.90;;;;;;4977864;28;20244;-54
2022/03/27 04:53:37;;;;;;;11.77;9.17;;;9.60;99.90;;;;;;4978095;28;20302;-52
2022/03/27 04:56:06;;;;;;;12.47;8.90;;;9.50;99.90;;;;;;4977878;28;20574;-52
2022/03/27 04:58:33;;;;;;;12.07;9.50;;;9.50;99.90;;;;;;4978539;28;20456;-52
2022/03/27 05:01:00;;;;;;;13.53;9.73;;;9.60;99.90;;;;;;4975652;28;20281;-52
2022/03/27 05:03:27;;;;;;;11.37;9.40;;;9.50;99.90;;;;;;4977067;28;20767;-55
2022/03/27 05:05:54;;;;;;;11.93;8.93;;;9.50;99.90;;;;;;4977154;28;20213;-52
2022/03/27 05:08:21;;;;;;;13.30;9.17;;;9.60;99.90;;;;;;4977883;28;20439;-52
2022/03/27 05:10:48;;;;;;;12.27;9.53;;;9.50;99.90;;;;;;4975535;28;20645;-53
2022/03/27 05:13:15;;;;;;;14.30;9.97;;;9.50;99.90;;;;;;4978095;28;20201;-52
2022/03/27 05:15:41;;;;;;;12.80;9.27;;;9.30;99.90;;;;;;4979607;28;20639;-52
2022/03/27 05:18:08;;;;;;;12.67;9.50;;;9.30;99.90;;;;;;4976033;28;20633;-53
2022/03/27 05:20:39;;;;;;;12.40;9.97;;;9.30;99.90;;;;;;4973682;28;20288;-54
2022/03/27 05:23:07;;;;;;;12.73;9.47;;;9.20;99.90;;;;;;4979173;28;20210;-52
2022/03/27 05:25:40;;;;;;;11.67;9.50;;;9.00;99.90;;;;;;4976728;28;20223;-53
2022/03/27 05:28:11;;;;;;;13.27;9.07;;;9.00;99.90;;;;;;4975511;28;20225;-51
2022/03/27 05:30:38;;;;;;;11.07;8.60;;;8.90;99.90;;;;;;4975220;28;20550;-54
2022/03/27 05:33:06;;;;;;;11.77;9.00;;;8.90;99.90;;;;;;4977546;28;21855;-53
2022/03/27 05:35:33;;;;;;;11.17;8.47;;;8.80;99.90;;;;;;4976769;28;20534;-54
2022/03/27 05:38:03;;;;;;;12.67;9.40;;;8.80;99.90;;;;;;4974666;28;20299;-52
2022/03/27 05:40:31;;;;;;;14.20;9.30;;;8.70;99.90;;;;;;4977571;28;20201;-52
2022/03/27 05:42:57;;;;;;;12.57;8.60;;;8.60;99.90;;;;;;4979077;28;20695;-53
2022/03/27 05:45:25;;;;;;;11.97;8.67;;;8.70;99.90;;;;;;4976746;28;20661;-51
2022/03/27 05:47:53;;;;;;;11.07;8.47;;;8.70;99.90;;;;;;4980546;28;20302;-53
2022/03/27 05:50:22;;;;;;;11.87;8.10;;;8.80;99.90;;;;;;4978001;28;20220;-53
2022/03/27 05:52:53;;;;;;;10.70;7.50;;;8.70;99.90;;;;;;4978498;28;20212;-51
2022/03/27 05:55:21;;;;;;;11.33;8.23;;;8.80;99.90;;;;;;4979563;28;20229;-53
2022/03/27 05:57:49;;;;;;;12.73;8.83;;;8.60;99.90;;;;;;4976932;28;20286;-52
2022/03/27 06:00:20;;;;;;;11.13;8.63;;;8.60;99.90;;;;;;4972796;28;20226;-53
2022/03/27 06:02:49;;;;;;;12.93;8.93;;;8.70;99.90;;;;;;4976518;28;20219;-52
2022/03/27 06:05:22;;;;;;;11.80;9.00;;;8.90;99.90;;;;;;4974266;28;20207;-51
2022/03/27 06:07:54;;;;;;;12.97;8.97;;;9.00;99.90;;;;;;4975025;28;20254;-51
2022/03/27 06:10:31;;;;;;;13.77;9.20;;;8.90;99.90;;;;;;4976241;28;20339;-52
2022/03/27 06:13:00;;;;;;;12.27;9.10;;;9.00;99.90;;;;;;4980036;28;20621;-53
2022/03/27 06:15:28;;;;;;;12.87;9.67;;;8.90;99.90;;;;;;4977735;28;20285;-52
2022/03/27 06:17:56;;;;;;;14.17;9.87;;;8.80;99.90;;;;;;4979535;28;20199;-51
2022/03/27 06:20:26;;;;;;;14.40;9.70;;;8.90;99.90;;;;;;4977646;28;20208;-52
2022/03/27 06:22:53;;;;;;;12.10;9.63;;;8.80;99.90;;;;;;4974828;28;20218;-52
2022/03/27 06:25:23;;;;;;;13.93;8.90;;;8.70;99.90;;;;;;4979678;28;20206;-51
2022/03/27 06:27:50;;;;;;;12.70;8.80;;;8.90;99.90;;;;;;4975968;28;20215;-51
2022/03/27 06:30:19;;;;;;;14.20;8.83;;;9.00;99.90;;;;;;4975934;28;20220;-51
2022/03/27 06:32:47;;;;;;;12.63;8.40;;;8.90;99.90;;;;;;4975414;28;20290;-51
2022/03/27 06:35:15;;;;;;;13.67;9.47;;;8.80;99.90;;;;;;4978224;28;20374;-51
2022/03/27 06:37:42;;;;;;;11.83;8.70;;;8.80;99.90;;;;;;4978089;28;20251;-53
2022/03/27 06:40:12;;;;;;;12.13;8.90;;;8.60;99.90;;;;;;4973000;28;20198;-52
2022/03/27 06:42:42;;;;;;;11.30;8.37;;;8.60;99.90;;;;;;4979465;28;20715;-51
2022/03/27 06:45:10;;;;;;;13.23;7.90;;;8.80;99.90;;;;;;4980656;28;20212;-51
2022/03/27 06:47:38;;;;;;;11.90;8.00;;;8.50;99.90;;;;;;4977080;28;20240;-51
2022/03/27 06:50:06;;;;;;;11.27;7.40;;;8.60;99.90;;;;;;4978150;28;20317;-53
2022/03/27 06:52:34;;;;;;;14.67;8.50;;;8.70;99.90;;;;;;4977235;28;20233;-51
2022/03/27 06:55:02;;;;;;;13.47;8.40;;;8.60;99.90;;;;;;4979613;28;20667;-54
2022/03/27 06:57:29;;;;;;;11.83;7.80;;;8.80;99.90;;;;;;4976201;28;20209;-54
2022/03/27 07:05:26;;;;;;;13.77;8.03;;;8.60;99.90;;;;;;4978060;28;21143;-53
2022/03/27 07:08:00;;;;;;;15.40;8.93;;;8.50;99.90;;;;;;4977111;28;20234;-53
2022/03/27 07:10:26;;;;;;;15.00;8.57;;;8.50;99.90;;;;;;4974587;28;20238;-53
2022/03/27 07:12:54;;;;;;;13.97;8.30;;;8.60;99.90;;;;;;4977019;28;20234;-51
2022/03/27 07:15:21;;;;;;;13.17;8.60;;;8.60;99.90;;;;;;4979062;28;20210;-52
2022/03/27 07:17:49;;;;;;;13.20;9.30;;;8.40;99.90;;;;;;4976271;28;20247;-58
2022/03/27 07:20:19;;;;;;;16.23;9.00;;;8.70;99.90;;;;;;4975795;28;20211;-52
2022/03/27 07:22:45;;;;;;;14.23;8.93;;;8.70;99.90;;;;;;4974555;28;20238;-53
2022/03/27 07:25:13;;;;;;;20.30;10.47;;;8.80;99.90;;;;;;4975505;28;20202;-53
2022/03/27 07:27:41;;;;;;;15.70;9.23;;;8.90;99.90;;;;;;4975238;28;20318;-51
2022/03/27 07:30:08;;;;;;;16.70;9.37;;;8.60;99.90;;;;;;4971751;28;20257;-51
2022/03/27 07:32:36;;;;;;;14.37;8.37;;;8.60;99.90;;;;;;4975007;28;20237;-52
2022/03/27 07:35:03;;;;;;;16.00;9.53;;;8.60;99.90;;;;;;4971474;28;20217;-52
2022/03/27 07:37:33;;;;;;;15.40;8.67;;;8.30;99.90;;;;;;4974078;28;20281;-51
2022/03/27 07:40:03;;;;;;;16.93;9.27;;;8.50;99.90;;;;;;4972572;28;20209;-52
2022/03/27 07:42:34;;;;;;;15.17;8.60;;;8.30;99.90;;;;;;4975172;28;20207;-54
2022/03/27 07:45:02;;;;;;;17.07;9.17;;;8.30;99.90;;;;;;4972321;28;20209;-54
2022/03/27 07:47:32;;;;;;;17.07;9.10;;;8.50;99.90;;;;;;4975231;28;20319;-51
2022/03/27 07:49:59;;;;;;;16.03;9.47;;;8.70;99.90;;;;;;4973252;28;20249;-53
2022/03/27 07:52:29;;;;;;;15.33;9.17;;;9.00;99.90;;;;;;4972918;28;20289;-54
2022/03/27 07:54:56;;;;;;;14.37;8.87;;;9.00;99.90;;;;;;4974682;28;20286;-52
2022/03/27 07:57:23;;;;;;;15.53;8.43;;;9.10;99.90;;;;;;4972316;28;20252;-53
2022/03/27 07:59:50;;;;;;;19.07;9.40;;;9.10;99.90;;;;;;4973338;28;20699;-53
2022/03/27 08:02:18;;;;;;;14.73;8.93;;;9.20;99.90;;;;;;4975917;28;20203;-53
2022/03/27 08:04:51;;;;;;;13.77;8.70;;;9.30;99.90;;;;;;4977001;28;20216;-53
2022/03/27 08:07:18;;;;;;;12.97;8.30;;;9.60;99.90;;;;;;4976066;28;20218;-52
2022/03/27 08:09:45;;;;;;;15.70;8.77;;;9.40;99.90;;;;;;4974396;28;20242;-51
2022/03/27 08:12:12;;;;;;;14.93;8.80;;;9.40;99.90;;;;;;4973327;28;20259;-52
2022/03/27 08:14:39;;;;;;;16.33;9.60;;;9.50;99.90;;;;;;4978288;28;20201;-54
2022/03/27 08:17:07;;;;;;;15.47;9.70;;;9.50;99.90;;;;;;4978955;28;20202;-52
2022/03/27 08:19:34;;;;;;;14.43;8.83;;;9.90;99.90;;;;;;4980222;28;20678;-53
2022/03/27 08:22:01;;;;;;;13.97;8.47;;;10.10;99.90;;;;;;4979956;28;20242;-52
2022/03/27 08:24:28;;;;;;;13.13;8.50;;;10.10;1.00;;;;;;4978455;28;20224;-52
2022/03/27 08:26:55;;;;;;;12.03;8.27;;;10.20;1.00;;;;;;4979183;28;20213;-51
2022/03/27 08:29:27;;;;;;;12.23;8.03;;;10.70;1.00;;;;;;4979018;28;20221;-53
2022/03/27 08:31:54;;;;;;;13.30;8.87;;;11.20;99.90;;;;;;4979855;28;20251;-52
2022/03/27 08:34:23;;;;;;;11.67;7.87;;;11.40;99.90;;;;;;4976548;28;20649;-50
2022/03/27 08:36:50;;;;;;;14.43;9.07;;;11.60;1.00;;;;;;4982054;28;20806;-53
2022/03/27 08:39:18;;;;;;;12.10;8.10;;;11.80;1.00;;;;;;4996357;28;20226;-51
2022/03/27 08:41:47;;;;;;;11.97;7.80;;;11.80;1.00;;;;;;4981399;28;20213;-51
2022/03/27 08:44:16;;;;;;;12.43;8.10;;;12.10;99.90;;;;;;4981222;28;20236;-52
2022/03/27 08:46:43;;;;;;;15.47;9.20;;;12.30;1.00;;;;;;4981041;28;20232;-50
2022/03/27 08:49:31;;;;;;;13.73;9.00;;;12.50;1.00;;;;;;4981050;28;20213;-52
2022/03/27 08:52:30;;;;;;;11.93;8.57;;;13.00;1.00;;;;;;4981158;28;20213;-52
2022/03/27 08:55:14;;;;;;;15.77;9.17;;;13.60;1.00;;;;;;4981949;28;20303;-49
2022/03/27 08:57:54;;;;;;;12.13;8.27;;;14.20;1.00;;;;;;4977908;28;20279;-50
2022/03/27 09:00:22;;;;;;;10.30;7.60;;;14.60;1.00;;;;;;4978331;28;20337;-51
2022/03/27 09:02:55;;;;;;;13.43;8.13;;;14.60;1.00;;;;;;4978967;28;20601;-51
2022/03/27 09:05:22;;;;;;;12.17;8.73;;;14.60;99.90;;;;;;4981721;28;20248;-52
2022/03/27 09:07:50;;;;;;;11.67;8.17;;;14.30;99.90;;;;;;4979582;28;20682;-52
2022/03/27 09:10:18;;;;;;;11.43;8.37;;;14.60;1.00;;;;;;4982046;28;20703;-51
2022/03/27 09:12:46;;;;;;;10.60;8.13;;;14.70;99.90;;;;;;4979173;28;20314;-50
2022/03/27 09:15:19;;;;;;;12.77;8.67;;;15.20;1.00;;;;;;4980728;28;20571;-53
2022/03/27 09:18:09;;;;;;;10.30;7.80;;;15.40;1.00;;;;;;4978369;28;20892;-50
2022/03/27 09:20:39;;;;;;;11.87;8.53;;;15.10;1.00;;;;;;4979143;28;20199;-50
2022/03/27 09:23:25;;;;;;;13.37;8.80;;;15.00;1.00;;;;;;4980129;28;20208;-53
2022/03/27 09:25:55;;;;;;;12.17;7.77;;;15.70;1.00;;;;;;4979917;28;20351;-52
2022/03/27 09:28:42;;;;;;;12.00;8.73;;;16.00;1.00;;;;;;4980480;28;20296;-51
2022/03/27 09:31:18;;;;;;;11.97;8.90;;;16.20;1.00;;;;;;4980563;28;20265;-52
2022/03/27 09:33:46;;;;;;;11.57;8.63;;;16.60;99.90;;;;;;4976893;28;20283;-51
2022/03/27 09:36:19;;;;;;;11.00;8.13;;;15.50;1.00;;;;;;4976565;28;20291;-50
2022/03/27 09:39:12;;;;;;;11.00;8.23;;;15.20;1.00;;;;;;4980528;28;20239;-53
2022/03/27 09:41:48;;;;;;;10.70;7.93;;;15.10;1.00;;;;;;4973778;28;20205;-52
2022/03/27 09:44:28;;;;;;;11.30;8.37;;;15.40;1.00;;;;;;4979763;28;20201;-51
2022/03/27 09:47:12;;;;;;;12.77;8.83;;;15.80;1.00;;;;;;4979825;28;20211;-53
2022/03/27 09:49:42;;;;;;;10.60;8.50;;;15.90;1.00;;;;;;4975603;28;20698;-53
2022/03/27 09:52:12;;;;;;;10.13;8.20;;;16.30;99.90;;;;;;4981420;28;20197;-51
2022/03/27 09:54:51;;;;;;;11.43;8.63;;;16.00;99.90;;;;;;4980628;28;20213;-51
2022/03/27 09:57:32;;;;;;;10.73;8.27;;;16.40;99.90;;;;;;4979396;28;20201;-51
2022/03/27 10:00:14;;;;;;;10.53;7.20;;;16.40;1.00;;;;;;4980745;28;20564;-51
2022/03/27 10:02:43;;;;;;;9.90;7.63;;;16.20;60.10;;;;;;4976740;28;20211;-51
2022/03/27 10:05:12;;;;;;;11.23;7.23;;;16.40;16.60;;;;;;4975965;28;20209;-49
2022/03/27 10:07:48;;;;;;;10.63;8.43;;;16.20;1.00;;;;;;4980169;28;20231;-52
2022/03/27 10:10:17;;;;;;;10.33;7.70;;;16.50;1.00;;;;;;4980006;28;20291;-51
2022/03/27 10:12:46;;;;;;;10.53;7.60;;;16.50;1.00;;;;;;4978212;28;20199;-52
2022/03/27 10:15:15;;;;;;;11.00;7.63;;;16.30;1.00;;;;;;4979334;28;20209;-51
2022/03/27 10:17:50;;;;;;;10.07;8.30;;;16.20;1.00;;;;;;4977544;28;20253;-53
2022/03/27 10:20:19;;;;;;;9.40;7.70;;;16.40;1.00;;;;;;4976221;28;20202;-50
2022/03/27 10:22:52;;;;;;;8.57;7.07;;;16.10;42.80;;;;;;4979453;28;20626;-51
2022/03/27 10:25:19;;;;;;;11.03;7.10;;;15.80;99.90;;;;;;4979954;28;20248;-53
2022/03/27 10:27:47;;;;;;;9.20;7.30;;;16.10;1.00;;;;;;4976727;28;20848;-50
2022/03/27 10:30:16;;;;;;;9.53;7.17;;;16.10;1.00;;;;;;4978016;28;20607;-51
2022/03/27 10:32:44;;;;;;;9.60;7.27;;;16.50;1.00;;;;;;4978081;28;20217;-51
2022/03/27 10:35:34;;;;;;;8.50;6.63;;;16.10;1.00;;;;;;4979753;28;20743;-50
2022/03/27 10:38:25;;;;;;;9.70;6.77;;;16.60;1.00;;;;;;4979929;28;20651;-51
2022/03/27 10:40:58;;;;;;;9.33;7.17;;;16.10;1.00;;;;;;4977072;28;20231;-51
2022/03/27 10:43:47;;;;;;;10.10;7.37;;;16.50;1.00;;;;;;4979556;28;20239;-51
2022/03/27 10:46:25;;;;;;;9.63;6.80;;;16.60;1.00;;;;;;4979490;28;20228;-51
2022/03/27 10:49:08;;;;;;;9.10;7.70;;;16.30;1.00;;;;;;4975786;28;20209;-52
2022/03/27 10:51:38;;;;;;;9.73;6.63;;;16.50;1.00;;;;;;4976533;28;20214;-50
2022/03/27 10:54:19;;;;;;;8.43;7.10;;;16.90;1.00;;;;;;4973783;28;20212;-51
2022/03/27 10:56:51;;;;;;;8.60;6.63;;;16.70;1.00;;;;;;4971193;28;20237;-50
2022/03/27 10:59:24;;;;;;;10.27;7.20;;;16.80;1.00;;;;;;4970726;28;20272;-53
2022/03/27 11:01:56;;;;;;;9.47;6.73;;;17.10;1.00;;;;;;4974944;28;20304;-52
2022/03/27 11:04:35;;;;;;;8.57;6.43;;;17.00;1.00;;;;;;4972676;28;20624;-50
2022/03/27 11:07:21;;;;;;;9.77;7.17;;;17.10;1.00;;;;;;4976377;28;20699;-49
2022/03/27 11:09:48;;;;;;;8.00;5.97;;;17.60;99.90;;;;;;4978600;28;20256;-49
2022/03/27 11:12:24;;;;;;;9.70;7.23;;;17.80;99.90;;;;;;4974385;28;20701;-53
2022/03/27 11:14:55;;;;;;;10.00;7.23;;;17.90;99.90;;;;;;4975845;28;20741;-51
2022/03/27 11:17:30;;;;;;;11.43;8.40;;;17.60;99.90;;;;;;4976307;28;20214;-52
2022/03/27 11:19:59;;;;;;;11.20;7.67;;;18.10;99.90;;;;;;4972831;28;20350;-51
2022/03/27 11:22:54;;;;;;;10.30;7.30;;;18.00;99.90;;;;;;4974949;28;20572;-51
2022/03/27 11:25:39;;;;;;;11.23;7.50;;;17.80;99.90;;;;;;4974667;28;20208;-51
2022/03/27 11:28:09;;;;;;;10.83;7.50;;;18.20;99.90;;;;;;4978454;28;20296;-50
2022/03/27 11:30:49;;;;;;;15.67;11.00;;;18.50;99.90;;;;;;4974267;28;20230;-49
2022/03/27 11:33:21;;;;;;;12.27;7.53;;;18.40;99.90;;;;;;4976088;28;20204;-50
2022/03/27 11:36:10;;;;;;;8.87;6.97;;;18.80;99.90;;;;;;4971805;28;20647;-52
2022/03/27 11:38:52;;;;;;;10.43;7.10;;;18.90;99.90;;;;;;4967096;28;20641;-51
2022/03/27 11:41:31;;;;;;;10.00;7.57;;;18.70;91.50;;;;;;4976654;28;20202;-53
2022/03/27 11:44:24;;;;;;;9.00;6.90;;;18.80;99.90;;;;;;4976560;28;20210;-53
2022/03/27 11:46:54;;;;;;;11.67;7.37;;;18.60;99.90;;;;;;4979403;28;20237;-52
2022/03/27 11:49:37;;;;;;;10.20;7.70;;;18.60;99.90;;;;;;4978720;28;20325;-53
2022/03/27 11:52:05;;;;;;;12.37;8.20;;;18.60;99.90;;;;;;4981047;28;20686;-53
2022/03/27 11:54:33;;;;;;;10.73;7.73;;;18.80;55.00;;;;;;4983424;28;20595;-51
2022/03/27 11:57:02;;;;;;;11.17;7.20;;;19.30;1.00;;;;;;4978778;28;20654;-53
2022/03/27 11:59:31;;;;;;;12.13;7.67;;;19.00;1.00;;;;;;4979699;28;20230;-53
2022/03/27 12:02:02;;;;;;;8.47;6.63;;;18.90;1.00;;;;;;4980475;28;20217;-52
2022/03/27 12:04:29;;;;;;;9.20;6.70;;;19.50;1.00;;;;;;4979813;28;20266;-51
2022/03/27 12:07:02;;;;;;;8.37;6.70;;;19.20;1.00;;;;;;4971762;28;20262;-52
2022/03/27 12:09:30;;;;;;;9.47;7.10;;;19.20;1.00;;;;;;4975538;28;20741;-52
2022/03/27 12:12:14;;;;;;;11.27;6.33;;;19.30;1.00;;;;;;4976018;28;20300;-54
2022/03/27 12:14:57;;;;;;;9.20;6.90;;;19.40;1.00;;;;;;4978346;28;20950;-51
2022/03/27 12:17:36;;;;;;;9.17;6.80;;;19.30;1.00;;;;;;4979149;28;20636;-53
2022/03/27 12:20:08;;;;;;;9.07;6.73;;;19.80;1.00;;;;;;4974161;28;20210;-52
2022/03/27 12:22:46;;;;;;;9.60;6.93;;;19.90;1.00;;;;;;4968398;28;20737;-52
2022/03/27 12:25:20;;;;;;;9.97;7.00;;;19.20;1.00;;;;;;4977804;28;20198;-52
2022/03/27 12:30:53;;;;;;;9.67;6.93;;;19.80;1.00;;;;;;4974187;28;20743;-53
2022/03/27 12:33:21;;;;;;;9.27;7.13;;;20.10;1.00;;;;;;4975029;28;20682;-53
2022/03/27 12:36:06;;;;;;;10.00;6.87;;;20.40;1.00;;;;;;4980743;28;20677;-53
2022/03/27 12:38:34;;;;;;;9.80;6.83;;;20.00;1.00;;;;;;4976564;28;20292;-53
2022/03/27 12:41:02;;;;;;;9.50;6.60;;;19.30;1.00;;;;;;4977527;28;20316;-52
2022/03/27 12:43:30;;;;;;;9.17;6.83;;;19.20;1.00;;;;;;4975896;28;20858;-54
2022/03/27 12:45:57;;;;;;;9.40;6.10;;;19.70;1.00;;;;;;4978023;28;20277;-52
2022/03/27 12:48:27;;;;;;;9.17;6.53;;;20.20;1.00;;;;;;4973914;28;20214;-53
2022/03/27 12:50:58;;;;;;;10.23;6.97;;;19.70;1.00;;;;;;4975873;28;20294;-52
2022/03/27 12:53:28;;;;;;;7.97;5.80;;;19.00;1.00;;;;;;4972999;28;20268;-54
2022/03/27 12:55:55;;;;;;;8.17;6.40;;;19.70;1.00;;;;;;4975132;28;20292;-52
2022/03/27 12:58:35;;;;;;;8.07;6.33;;;20.00;1.00;;;;;;4973684;28;20292;-54
2022/03/27 13:01:05;;;;;;;10.80;7.10;;;20.20;1.00;;;;;;4976308;28;20949;-53
2022/03/27 13:03:32;;;;;;;9.47;6.73;;;19.30;1.00;;;;;;4967690;28;22106;-52
2022/03/27 13:06:06;;;;;;;8.93;6.23;;;19.60;1.00;;;;;;4958005;28;20236;-53
2022/03/27 13:08:35;;;;;;;8.63;6.27;;;19.70;1.00;;;;;;4952652;28;20814;-54
2022/03/27 13:11:19;;;;;;;11.43;7.20;;;19.90;1.00;;;;;;4953051;28;20509;-52
2022/03/27 13:13:48;;;;;;;12.03;7.40;;;19.90;1.00;;;;;;4955000;28;20237;-52
2022/03/27 13:16:31;;;;;;;9.53;7.03;;;20.00;1.00;;;;;;4965240;28;20372;-53